sensor_id;sensor_type;location;lat;lon;timestamp;P1;durP1;ratioP1;P2;durP2;ratioP2
52984;SDS011;40499;47.830;19.026;2022-09-13T00:00:55;1.90;;;1.13;;
52984;SDS011;40499;47.830;19.026;2022-09-13T00:03:20;1.77;;;0.70;;
52984;SDS011;40499;47.830;19.026;2022-09-13T00:05:46;1.05;;;0.70;;
52984;SDS011;40499;47.830;19.026;2022-09-13T00:08:12;1.95;;;0.95;;
52984;SDS011;40499;47.830;19.026;2022-09-13T00:10:39;1.60;;;0.90;;
52984;SDS011;40499;47.830;19.026;2022-09-13T00:13:06;2.05;;;1.25;;
52984;SDS011;40499;47.830;19.026;2022-09-13T00:15:32;1.48;;;0.90;;
52984;SDS011;40499;47.830;19.026;2022-09-13T00:17:58;1.33;;;0.82;;
52984;SDS011;40499;47.830;19.026;2022-09-13T00:20:24;2.08;;;1.00;;
52984;SDS011;40499;47.830;19.026;2022-09-13T00:22:50;1.55;;;0.80;;
52984;SDS011;40499;47.830;19.026;2022-09-13T00:25:15;0.85;;;0.68;;
52984;SDS011;40499;47.830;19.026;2022-09-13T00:27:41;2.35;;;0.77;;
52984;SDS011;40499;47.830;19.026;2022-09-13T00:30:08;1.40;;;0.93;;
52984;SDS011;40499;47.830;19.026;2022-09-13T00:32:35;1.25;;;0.80;;
52984;SDS011;40499;47.830;19.026;2022-09-13T00:35:01;1.33;;;0.88;;
52984;SDS011;40499;47.830;19.026;2022-09-13T00:37:27;2.17;;;1.08;;
52984;SDS011;40499;47.830;19.026;2022-09-13T00:39:53;1.13;;;0.68;;
52984;SDS011;40499;47.830;19.026;2022-09-13T00:42:23;1.77;;;0.80;;
52984;SDS011;40499;47.830;19.026;2022-09-13T00:47:36;1.58;;;0.90;;
52984;SDS011;40499;47.830;19.026;2022-09-13T00:53:02;2.88;;;1.08;;
52984;SDS011;40499;47.830;19.026;2022-09-13T00:55:43;1.70;;;0.77;;
52984;SDS011;40499;47.830;19.026;2022-09-13T00:58:27;2.50;;;1.08;;
52984;SDS011;40499;47.830;19.026;2022-09-13T01:00:58;1.38;;;0.82;;
52984;SDS011;40499;47.830;19.026;2022-09-13T01:03:27;1.63;;;0.80;;
52984;SDS011;40499;47.830;19.026;2022-09-13T01:05:57;2.45;;;1.30;;
52984;SDS011;40499;47.830;19.026;2022-09-13T01:08:26;1.08;;;0.65;;
52984;SDS011;40499;47.830;19.026;2022-09-13T01:10:55;4.38;;;0.90;;
52984;SDS011;40499;47.830;19.026;2022-09-13T01:13:22;1.17;;;0.60;;
52984;SDS011;40499;47.830;19.026;2022-09-13T01:15:50;2.08;;;1.00;;
52984;SDS011;40499;47.830;19.026;2022-09-13T01:18:16;0.90;;;0.80;;
52984;SDS011;40499;47.830;19.026;2022-09-13T01:20:55;1.67;;;0.80;;
52984;SDS011;40499;47.830;19.026;2022-09-13T01:26:13;3.60;;;0.70;;
52984;SDS011;40499;47.830;19.026;2022-09-13T01:28:53;0.77;;;0.60;;
52984;SDS011;40499;47.830;19.026;2022-09-13T01:37:23;1.25;;;0.70;;
52984;SDS011;40499;47.830;19.026;2022-09-13T01:51:38;1.55;;;0.60;;
52984;SDS011;40499;47.830;19.026;2022-09-13T01:54:16;4.18;;;0.88;;
52984;SDS011;40499;47.830;19.026;2022-09-13T01:57:02;0.90;;;0.60;;
52984;SDS011;40499;47.830;19.026;2022-09-13T02:10:55;1.40;;;0.75;;
52984;SDS011;40499;47.830;19.026;2022-09-13T02:13:26;3.45;;;0.60;;
52984;SDS011;40499;47.830;19.026;2022-09-13T02:15:59;2.20;;;0.80;;
52984;SDS011;40499;47.830;19.026;2022-09-13T02:18:33;1.23;;;0.70;;
52984;SDS011;40499;47.830;19.026;2022-09-13T02:21:06;2.28;;;0.70;;
52984;SDS011;40499;47.830;19.026;2022-09-13T02:23:49;1.48;;;0.68;;
52984;SDS011;40499;47.830;19.026;2022-09-13T02:26:18;1.38;;;0.95;;
52984;SDS011;40499;47.830;19.026;2022-09-13T02:28:46;1.45;;;0.80;;
52984;SDS011;40499;47.830;19.026;2022-09-13T02:31:19;1.58;;;0.90;;
52984;SDS011;40499;47.830;19.026;2022-09-13T02:33:59;2.65;;;1.08;;
52984;SDS011;40499;47.830;19.026;2022-09-13T02:36:30;1.77;;;0.80;;
52984;SDS011;40499;47.830;19.026;2022-09-13T02:39:02;2.03;;;0.93;;
52984;SDS011;40499;47.830;19.026;2022-09-13T02:44:20;1.80;;;0.82;;
52984;SDS011;40499;47.830;19.026;2022-09-13T02:57:17;1.38;;;0.80;;
52984;SDS011;40499;47.830;19.026;2022-09-13T02:59:50;1.77;;;0.90;;
52984;SDS011;40499;47.830;19.026;2022-09-13T03:02:15;1.85;;;1.00;;
52984;SDS011;40499;47.830;19.026;2022-09-13T03:04:45;1.63;;;0.93;;
52984;SDS011;40499;47.830;19.026;2022-09-13T03:07:11;1.00;;;0.70;;
52984;SDS011;40499;47.830;19.026;2022-09-13T03:09:42;1.17;;;0.60;;
52984;SDS011;40499;47.830;19.026;2022-09-13T03:12:18;1.58;;;0.85;;
52984;SDS011;40499;47.830;19.026;2022-09-13T03:24:25;1.70;;;0.70;;
52984;SDS011;40499;47.830;19.026;2022-09-13T03:29:44;2.05;;;0.85;;
52984;SDS011;40499;47.830;19.026;2022-09-13T03:32:23;3.45;;;1.70;;
52984;SDS011;40499;47.830;19.026;2022-09-13T03:34:54;1.15;;;0.70;;
52984;SDS011;40499;47.830;19.026;2022-09-13T03:40:38;1.50;;;0.50;;
52984;SDS011;40499;47.830;19.026;2022-09-13T03:43:11;1.65;;;0.90;;
52984;SDS011;40499;47.830;19.026;2022-09-13T03:45:41;2.72;;;0.68;;
52984;SDS011;40499;47.830;19.026;2022-09-13T03:48:12;2.72;;;0.70;;
52984;SDS011;40499;47.830;19.026;2022-09-13T03:50:39;2.25;;;0.82;;
52984;SDS011;40499;47.830;19.026;2022-09-13T03:53:06;1.13;;;0.68;;
52984;SDS011;40499;47.830;19.026;2022-09-13T03:55:41;0.98;;;0.50;;
52984;SDS011;40499;47.830;19.026;2022-09-13T03:58:09;1.17;;;0.80;;
52984;SDS011;40499;47.830;19.026;2022-09-13T04:00:36;1.77;;;0.80;;
52984;SDS011;40499;47.830;19.026;2022-09-13T04:03:02;1.35;;;0.73;;
52984;SDS011;40499;47.830;19.026;2022-09-13T04:05:27;1.13;;;0.70;;
52984;SDS011;40499;47.830;19.026;2022-09-13T04:07:53;1.65;;;0.93;;
52984;SDS011;40499;47.830;19.026;2022-09-13T04:10:18;1.65;;;0.60;;
52984;SDS011;40499;47.830;19.026;2022-09-13T04:12:45;0.95;;;0.70;;
52984;SDS011;40499;47.830;19.026;2022-09-13T04:15:11;3.60;;;0.70;;
52984;SDS011;40499;47.830;19.026;2022-09-13T04:17:37;0.70;;;0.55;;
52984;SDS011;40499;47.830;19.026;2022-09-13T04:20:03;1.17;;;0.68;;
52984;SDS011;40499;47.830;19.026;2022-09-13T04:22:29;0.93;;;0.68;;
52984;SDS011;40499;47.830;19.026;2022-09-13T04:24:55;1.20;;;0.70;;
52984;SDS011;40499;47.830;19.026;2022-09-13T04:27:20;1.38;;;0.68;;
52984;SDS011;40499;47.830;19.026;2022-09-13T04:29:48;1.58;;;0.98;;
52984;SDS011;40499;47.830;19.026;2022-09-13T04:32:13;1.45;;;0.80;;
52984;SDS011;40499;47.830;19.026;2022-09-13T04:34:38;1.52;;;0.70;;
52984;SDS011;40499;47.830;19.026;2022-09-13T04:37:04;1.67;;;0.70;;
52984;SDS011;40499;47.830;19.026;2022-09-13T04:42:34;2.58;;;1.30;;
52984;SDS011;40499;47.830;19.026;2022-09-13T04:48:07;1.57;;;0.60;;
52984;SDS011;40499;47.830;19.026;2022-09-13T04:50:46;6.60;;;2.72;;
52984;SDS011;40499;47.830;19.026;2022-09-13T04:53:24;5.43;;;2.60;;
52984;SDS011;40499;47.830;19.026;2022-09-13T04:56:08;8.15;;;2.60;;
52984;SDS011;40499;47.830;19.026;2022-09-13T04:58:50;9.60;;;3.20;;
52984;SDS011;40499;47.830;19.026;2022-09-13T05:01:22;3.45;;;2.30;;
52984;SDS011;40499;47.830;19.026;2022-09-13T05:03:49;4.03;;;1.30;;
52984;SDS011;40499;47.830;19.026;2022-09-13T05:06:19;2.92;;;1.35;;
52984;SDS011;40499;47.830;19.026;2022-09-13T05:08:54;2.47;;;1.60;;
52984;SDS011;40499;47.830;19.026;2022-09-13T05:11:33;5.63;;;2.95;;
52984;SDS011;40499;47.830;19.026;2022-09-13T05:14:07;5.07;;;2.38;;
52984;SDS011;40499;47.830;19.026;2022-09-13T05:16:36;9.82;;;4.70;;
52984;SDS011;40499;47.830;19.026;2022-09-13T05:19:02;9.95;;;4.38;;
52984;SDS011;40499;47.830;19.026;2022-09-13T05:21:28;6.20;;;2.58;;
52984;SDS011;40499;47.830;19.026;2022-09-13T05:23:55;5.35;;;2.53;;
52984;SDS011;40499;47.830;19.026;2022-09-13T05:26:22;7.93;;;3.97;;
52984;SDS011;40499;47.830;19.026;2022-09-13T05:28:48;10.90;;;5.43;;
52984;SDS011;40499;47.830;19.026;2022-09-13T05:31:21;8.88;;;4.80;;
52984;SDS011;40499;47.830;19.026;2022-09-13T05:33:54;13.32;;;5.60;;
52984;SDS011;40499;47.830;19.026;2022-09-13T05:36:21;5.22;;;3.15;;
52984;SDS011;40499;47.830;19.026;2022-09-13T05:38:46;9.52;;;4.10;;
52984;SDS011;40499;47.830;19.026;2022-09-13T05:41:12;6.20;;;2.72;;
52984;SDS011;40499;47.830;19.026;2022-09-13T05:43:37;5.45;;;1.80;;
52984;SDS011;40499;47.830;19.026;2022-09-13T05:48:36;2.50;;;1.25;;
52984;SDS011;40499;47.830;19.026;2022-09-13T05:51:10;3.03;;;1.00;;
52984;SDS011;40499;47.830;19.026;2022-09-13T05:53:36;2.58;;;0.93;;
52984;SDS011;40499;47.830;19.026;2022-09-13T05:56:06;1.67;;;1.23;;
52984;SDS011;40499;47.830;19.026;2022-09-13T05:58:32;2.78;;;1.17;;
52984;SDS011;40499;47.830;19.026;2022-09-13T06:00:59;2.50;;;1.60;;
52984;SDS011;40499;47.830;19.026;2022-09-13T06:03:25;1.63;;;0.93;;
52984;SDS011;40499;47.830;19.026;2022-09-13T06:05:53;3.55;;;1.73;;
52984;SDS011;40499;47.830;19.026;2022-09-13T06:08:21;2.72;;;1.00;;
52984;SDS011;40499;47.830;19.026;2022-09-13T06:10:59;1.75;;;1.05;;
52984;SDS011;40499;47.830;19.026;2022-09-13T06:13:27;1.52;;;0.82;;
52984;SDS011;40499;47.830;19.026;2022-09-13T06:15:53;1.17;;;0.88;;
52984;SDS011;40499;47.830;19.026;2022-09-13T06:18:20;1.75;;;0.90;;
52984;SDS011;40499;47.830;19.026;2022-09-13T06:20:47;3.83;;;1.55;;
52984;SDS011;40499;47.830;19.026;2022-09-13T06:23:13;1.67;;;0.88;;
52984;SDS011;40499;47.830;19.026;2022-09-13T06:25:39;1.60;;;0.90;;
52984;SDS011;40499;47.830;19.026;2022-09-13T06:28:05;1.38;;;0.93;;
52984;SDS011;40499;47.830;19.026;2022-09-13T06:30:31;0.88;;;0.60;;
52984;SDS011;40499;47.830;19.026;2022-09-13T06:32:56;1.75;;;0.93;;
52984;SDS011;40499;47.830;19.026;2022-09-13T06:35:21;1.98;;;0.77;;
52984;SDS011;40499;47.830;19.026;2022-09-13T06:37:47;1.10;;;0.57;;
52984;SDS011;40499;47.830;19.026;2022-09-13T06:40:13;2.30;;;0.70;;
52984;SDS011;40499;47.830;19.026;2022-09-13T06:42:38;1.23;;;0.73;;
52984;SDS011;40499;47.830;19.026;2022-09-13T06:45:04;1.45;;;0.70;;
52984;SDS011;40499;47.830;19.026;2022-09-13T06:47:30;1.30;;;1.00;;
52984;SDS011;40499;47.830;19.026;2022-09-13T06:49:56;2.08;;;1.00;;
52984;SDS011;40499;47.830;19.026;2022-09-13T06:52:22;1.80;;;1.02;;
52984;SDS011;40499;47.830;19.026;2022-09-13T06:54:48;2.45;;;1.08;;
52984;SDS011;40499;47.830;19.026;2022-09-13T06:57:13;1.38;;;0.70;;
52984;SDS011;40499;47.830;19.026;2022-09-13T06:59:39;2.13;;;0.88;;
52984;SDS011;40499;47.830;19.026;2022-09-13T07:02:04;1.30;;;0.80;;
52984;SDS011;40499;47.830;19.026;2022-09-13T07:04:30;2.35;;;1.20;;
52984;SDS011;40499;47.830;19.026;2022-09-13T07:06:55;2.30;;;1.13;;
52984;SDS011;40499;47.830;19.026;2022-09-13T07:09:22;2.63;;;1.08;;
52984;SDS011;40499;47.830;19.026;2022-09-13T07:11:48;1.25;;;0.70;;
52984;SDS011;40499;47.830;19.026;2022-09-13T07:14:16;1.48;;;0.80;;
52984;SDS011;40499;47.830;19.026;2022-09-13T07:16:44;2.05;;;1.02;;
52984;SDS011;40499;47.830;19.026;2022-09-13T07:22:41;2.72;;;1.00;;
52984;SDS011;40499;47.830;19.026;2022-09-13T07:25:06;1.30;;;0.88;;
52984;SDS011;40499;47.830;19.026;2022-09-13T07:27:32;2.08;;;0.90;;
52984;SDS011;40499;47.830;19.026;2022-09-13T07:30:00;2.33;;;0.85;;
52984;SDS011;40499;47.830;19.026;2022-09-13T07:33:00;1.58;;;0.90;;
52984;SDS011;40499;47.830;19.026;2022-09-13T07:35:26;2.08;;;0.80;;
52984;SDS011;40499;47.830;19.026;2022-09-13T07:37:51;1.38;;;0.50;;
52984;SDS011;40499;47.830;19.026;2022-09-13T07:40:17;1.50;;;0.90;;
52984;SDS011;40499;47.830;19.026;2022-09-13T07:42:42;1.98;;;0.88;;
52984;SDS011;40499;47.830;19.026;2022-09-13T07:45:10;1.77;;;0.95;;
52984;SDS011;40499;47.830;19.026;2022-09-13T07:47:36;1.65;;;0.68;;
52984;SDS011;40499;47.830;19.026;2022-09-13T07:50:04;2.08;;;1.10;;
52984;SDS011;40499;47.830;19.026;2022-09-13T07:52:30;3.03;;;1.25;;
52984;SDS011;40499;47.830;19.026;2022-09-13T07:54:55;2.33;;;1.00;;
52984;SDS011;40499;47.830;19.026;2022-09-13T07:57:20;2.90;;;0.93;;
52984;SDS011;40499;47.830;19.026;2022-09-13T07:59:46;3.60;;;1.10;;
52984;SDS011;40499;47.830;19.026;2022-09-13T08:02:18;1.67;;;0.93;;
52984;SDS011;40499;47.830;19.026;2022-09-13T08:05:01;2.15;;;0.80;;
52984;SDS011;40499;47.830;19.026;2022-09-13T08:07:27;4.65;;;1.08;;
52984;SDS011;40499;47.830;19.026;2022-09-13T08:09:53;2.05;;;0.75;;
52984;SDS011;40499;47.830;19.026;2022-09-13T08:12:20;1.45;;;0.75;;
52984;SDS011;40499;47.830;19.026;2022-09-13T08:14:45;3.88;;;0.95;;
52984;SDS011;40499;47.830;19.026;2022-09-13T08:17:10;1.25;;;0.60;;
52984;SDS011;40499;47.830;19.026;2022-09-13T08:19:36;1.02;;;0.50;;
52984;SDS011;40499;47.830;19.026;2022-09-13T08:22:01;0.77;;;0.47;;
52984;SDS011;40499;47.830;19.026;2022-09-13T08:24:27;2.63;;;0.88;;
52984;SDS011;40499;47.830;19.026;2022-09-13T08:26:53;0.82;;;0.40;;
52984;SDS011;40499;47.830;19.026;2022-09-13T08:29:19;1.85;;;0.90;;
52984;SDS011;40499;47.830;19.026;2022-09-13T08:31:44;0.82;;;0.35;;
52984;SDS011;40499;47.830;19.026;2022-09-13T08:34:10;1.63;;;0.43;;
52984;SDS011;40499;47.830;19.026;2022-09-13T08:36:38;1.70;;;0.70;;
52984;SDS011;40499;47.830;19.026;2022-09-13T08:39:05;1.58;;;0.50;;
52984;SDS011;40499;47.830;19.026;2022-09-13T08:46:50;0.68;;;0.40;;
52984;SDS011;40499;47.830;19.026;2022-09-13T08:49:23;1.08;;;0.50;;
52984;SDS011;40499;47.830;19.026;2022-09-13T08:51:55;1.13;;;0.40;;
52984;SDS011;40499;47.830;19.026;2022-09-13T08:54:25;3.70;;;0.60;;
52984;SDS011;40499;47.830;19.026;2022-09-13T08:59:31;1.17;;;0.70;;
52984;SDS011;40499;47.830;19.026;2022-09-13T09:05:30;1.13;;;0.65;;
52984;SDS011;40499;47.830;19.026;2022-09-13T09:22:03;1.58;;;0.50;;
52984;SDS011;40499;47.830;19.026;2022-09-13T09:24:31;2.25;;;0.50;;
52984;SDS011;40499;47.830;19.026;2022-09-13T09:27:32;2.85;;;0.70;;
52984;SDS011;40499;47.830;19.026;2022-09-13T09:30:32;0.80;;;0.43;;
52984;SDS011;40499;47.830;19.026;2022-09-13T09:43:55;1.25;;;0.55;;
52984;SDS011;40499;47.830;19.026;2022-09-13T09:46:26;2.92;;;0.95;;
52984;SDS011;40499;47.830;19.026;2022-09-13T09:48:55;1.02;;;0.50;;
52984;SDS011;40499;47.830;19.026;2022-09-13T09:51:28;0.73;;;0.47;;
52984;SDS011;40499;47.830;19.026;2022-09-13T09:53:57;0.82;;;0.52;;
52984;SDS011;40499;47.830;19.026;2022-09-13T09:56:30;1.25;;;0.40;;
52984;SDS011;40499;47.830;19.026;2022-09-13T09:58:57;1.75;;;0.52;;
52984;SDS011;40499;47.830;19.026;2022-09-13T10:01:29;1.52;;;0.35;;
52984;SDS011;40499;47.830;19.026;2022-09-13T10:04:00;1.43;;;0.77;;
52984;SDS011;40499;47.830;19.026;2022-09-13T10:06:43;1.60;;;0.40;;
52984;SDS011;40499;47.830;19.026;2022-09-13T10:09:20;1.35;;;0.32;;
52984;SDS011;40499;47.830;19.026;2022-09-13T10:11:51;1.20;;;0.55;;
52984;SDS011;40499;47.830;19.026;2022-09-13T10:14:36;3.03;;;0.50;;
52984;SDS011;40499;47.830;19.026;2022-09-13T10:17:20;1.15;;;0.30;;
52984;SDS011;40499;47.830;19.026;2022-09-13T10:22:28;0.60;;;0.20;;
52984;SDS011;40499;47.830;19.026;2022-09-13T10:25:16;1.42;;;0.32;;
52984;SDS011;40499;47.830;19.026;2022-09-13T10:27:46;0.75;;;0.22;;
52984;SDS011;40499;47.830;19.026;2022-09-13T10:32:58;0.75;;;0.30;;
52984;SDS011;40499;47.830;19.026;2022-09-13T10:35:24;1.40;;;0.40;;
52984;SDS011;40499;47.830;19.026;2022-09-13T10:37:50;1.27;;;0.20;;
52984;SDS011;40499;47.830;19.026;2022-09-13T10:40:18;0.65;;;0.30;;
52984;SDS011;40499;47.830;19.026;2022-09-13T10:43:00;1.25;;;0.30;;
52984;SDS011;40499;47.830;19.026;2022-09-13T10:45:28;1.13;;;0.32;;
52984;SDS011;40499;47.830;19.026;2022-09-13T10:48:08;1.27;;;0.50;;
52984;SDS011;40499;47.830;19.026;2022-09-13T10:50:40;1.15;;;0.57;;
52984;SDS011;40499;47.830;19.026;2022-09-13T10:56:04;0.80;;;0.40;;
52984;SDS011;40499;47.830;19.026;2022-09-13T10:58:42;1.13;;;0.30;;
52984;SDS011;40499;47.830;19.026;2022-09-13T11:06:29;1.88;;;0.30;;
52984;SDS011;40499;47.830;19.026;2022-09-13T11:17:02;0.55;;;0.30;;
52984;SDS011;40499;47.830;19.026;2022-09-13T11:25:32;0.57;;;0.40;;
52984;SDS011;40499;47.830;19.026;2022-09-13T11:33:54;0.65;;;0.22;;
52984;SDS011;40499;47.830;19.026;2022-09-13T11:54:58;1.27;;;0.30;;
52984;SDS011;40499;47.830;19.026;2022-09-13T11:57:31;0.70;;;0.52;;
52984;SDS011;40499;47.830;19.026;2022-09-13T12:05:02;0.88;;;0.32;;
52984;SDS011;40499;47.830;19.026;2022-09-13T12:07:57;1.25;;;0.40;;
52984;SDS011;40499;47.830;19.026;2022-09-13T12:13:02;0.40;;;0.15;;
52984;SDS011;40499;47.830;19.026;2022-09-13T12:15:38;0.77;;;0.20;;
52984;SDS011;40499;47.830;19.026;2022-09-13T12:20:37;3.00;;;0.77;;
52984;SDS011;40499;47.830;19.026;2022-09-13T12:23:10;1.95;;;0.95;;
52984;SDS011;40499;47.830;19.026;2022-09-13T12:26:14;0.22;;;0.17;;
52984;SDS011;40499;47.830;19.026;2022-09-13T12:28:45;0.93;;;0.47;;
52984;SDS011;40499;47.830;19.026;2022-09-13T12:31:21;1.05;;;0.32;;
52984;SDS011;40499;47.830;19.026;2022-09-13T12:33:50;0.70;;;0.30;;
52984;SDS011;40499;47.830;19.026;2022-09-13T12:36:35;0.73;;;0.40;;
52984;SDS011;40499;47.830;19.026;2022-09-13T12:39:36;0.95;;;0.35;;
52984;SDS011;40499;47.830;19.026;2022-09-13T12:56:47;0.90;;;0.40;;
52984;SDS011;40499;47.830;19.026;2022-09-13T13:02:18;0.40;;;0.20;;
52984;SDS011;40499;47.830;19.026;2022-09-13T13:05:28;0.65;;;0.35;;
52984;SDS011;40499;47.830;19.026;2022-09-13T13:07:56;0.63;;;0.32;;
52984;SDS011;40499;47.830;19.026;2022-09-13T13:10:41;1.05;;;0.40;;
52984;SDS011;40499;47.830;19.026;2022-09-13T13:13:14;3.42;;;0.55;;
52984;SDS011;40499;47.830;19.026;2022-09-13T13:26:49;0.90;;;0.40;;
52984;SDS011;40499;47.830;19.026;2022-09-13T13:29:23;0.80;;;0.30;;
52984;SDS011;40499;47.830;19.026;2022-09-13T13:37:02;0.60;;;0.30;;
52984;SDS011;40499;47.830;19.026;2022-09-13T13:41:54;1.30;;;0.30;;
52984;SDS011;40499;47.830;19.026;2022-09-13T13:59:48;1.30;;;0.50;;
52984;SDS011;40499;47.830;19.026;2022-09-13T14:02:16;1.00;;;0.68;;
52984;SDS011;40499;47.830;19.026;2022-09-13T14:11:12;1.08;;;0.55;;
52984;SDS011;40499;47.830;19.026;2022-09-13T14:13:46;1.20;;;0.40;;
52984;SDS011;40499;47.830;19.026;2022-09-13T14:21:45;0.60;;;0.38;;
52984;SDS011;40499;47.830;19.026;2022-09-13T14:26:48;0.82;;;0.43;;
52984;SDS011;40499;47.830;19.026;2022-09-13T14:29:22;0.75;;;0.50;;
52984;SDS011;40499;47.830;19.026;2022-09-13T14:31:54;2.72;;;0.47;;
52984;SDS011;40499;47.830;19.026;2022-09-13T14:34:27;0.60;;;0.30;;
52984;SDS011;40499;47.830;19.026;2022-09-13T14:36:56;0.85;;;0.40;;
52984;SDS011;40499;47.830;19.026;2022-09-13T14:39:23;1.23;;;0.60;;
52984;SDS011;40499;47.830;19.026;2022-09-13T14:41:57;1.17;;;0.50;;
52984;SDS011;40499;47.830;19.026;2022-09-13T14:44:51;0.73;;;0.35;;
52984;SDS011;40499;47.830;19.026;2022-09-13T14:49:47;1.45;;;0.95;;
52984;SDS011;40499;47.830;19.026;2022-09-13T14:52:25;0.95;;;0.50;;
52984;SDS011;40499;47.830;19.026;2022-09-13T14:54:58;1.77;;;0.52;;
52984;SDS011;40499;47.830;19.026;2022-09-13T14:57:29;1.27;;;0.75;;
52984;SDS011;40499;47.830;19.026;2022-09-13T15:00:03;0.88;;;0.30;;
52984;SDS011;40499;47.830;19.026;2022-09-13T15:02:38;1.05;;;0.47;;
52984;SDS011;40499;47.830;19.026;2022-09-13T15:05:05;1.15;;;0.57;;
52984;SDS011;40499;47.830;19.026;2022-09-13T15:12:37;8.65;;;0.88;;
52984;SDS011;40499;47.830;19.026;2022-09-13T15:17:57;2.00;;;0.60;;
52984;SDS011;40499;47.830;19.026;2022-09-13T15:20:29;0.80;;;0.35;;
52984;SDS011;40499;47.830;19.026;2022-09-13T15:23:31;3.00;;;0.55;;
52984;SDS011;40499;47.830;19.026;2022-09-13T15:28:29;1.00;;;0.40;;
52984;SDS011;40499;47.830;19.026;2022-09-13T15:30:58;2.92;;;1.05;;
52984;SDS011;40499;47.830;19.026;2022-09-13T15:33:30;0.75;;;0.45;;
52984;SDS011;40499;47.830;19.026;2022-09-13T15:38:55;1.05;;;0.50;;
52984;SDS011;40499;47.830;19.026;2022-09-13T15:41:30;0.75;;;0.43;;
52984;SDS011;40499;47.830;19.026;2022-09-13T15:43:58;2.75;;;0.55;;
52984;SDS011;40499;47.830;19.026;2022-09-13T15:46:24;1.13;;;0.63;;
52984;SDS011;40499;47.830;19.026;2022-09-13T15:48:51;1.17;;;0.52;;
52984;SDS011;40499;47.830;19.026;2022-09-13T15:51:19;0.90;;;0.50;;
52984;SDS011;40499;47.830;19.026;2022-09-13T15:53:46;1.30;;;0.88;;
52984;SDS011;40499;47.830;19.026;2022-09-13T15:56:13;1.30;;;0.50;;
52984;SDS011;40499;47.830;19.026;2022-09-13T15:58:41;0.60;;;0.40;;
52984;SDS011;40499;47.830;19.026;2022-09-13T16:01:06;1.02;;;0.47;;
52984;SDS011;40499;47.830;19.026;2022-09-13T16:03:33;1.23;;;0.75;;
52984;SDS011;40499;47.830;19.026;2022-09-13T16:05:59;2.03;;;0.57;;
52984;SDS011;40499;47.830;19.026;2022-09-13T16:08:24;1.10;;;0.52;;
52984;SDS011;40499;47.830;19.026;2022-09-13T16:10:50;0.98;;;0.60;;
52984;SDS011;40499;47.830;19.026;2022-09-13T16:13:15;1.85;;;0.60;;
52984;SDS011;40499;47.830;19.026;2022-09-13T16:15:41;1.35;;;0.60;;
52984;SDS011;40499;47.830;19.026;2022-09-13T16:18:07;1.08;;;0.43;;
52984;SDS011;40499;47.830;19.026;2022-09-13T16:20:32;2.00;;;0.57;;
52984;SDS011;40499;47.830;19.026;2022-09-13T16:22:58;1.20;;;0.85;;
52984;SDS011;40499;47.830;19.026;2022-09-13T16:25:23;3.50;;;0.60;;
52984;SDS011;40499;47.830;19.026;2022-09-13T16:27:49;0.57;;;0.40;;
52984;SDS011;40499;47.830;19.026;2022-09-13T16:30:16;8.20;;;1.73;;
52984;SDS011;40499;47.830;19.026;2022-09-13T16:32:43;1.73;;;0.60;;
52984;SDS011;40499;47.830;19.026;2022-09-13T16:35:10;8.32;;;1.23;;
52984;SDS011;40499;47.830;19.026;2022-09-13T16:37:37;2.45;;;0.80;;
52984;SDS011;40499;47.830;19.026;2022-09-13T16:40:04;1.30;;;0.75;;
52984;SDS011;40499;47.830;19.026;2022-09-13T16:42:31;1.80;;;0.77;;
52984;SDS011;40499;47.830;19.026;2022-09-13T16:44:57;1.80;;;0.50;;
52984;SDS011;40499;47.830;19.026;2022-09-13T16:47:23;0.93;;;0.50;;
52984;SDS011;40499;47.830;19.026;2022-09-13T16:49:48;2.03;;;0.68;;
52984;SDS011;40499;47.830;19.026;2022-09-13T16:52:14;1.50;;;0.52;;
52984;SDS011;40499;47.830;19.026;2022-09-13T16:54:39;0.90;;;0.70;;
52984;SDS011;40499;47.830;19.026;2022-09-13T16:57:05;2.92;;;0.80;;
52984;SDS011;40499;47.830;19.026;2022-09-13T16:59:31;2.17;;;0.95;;
52984;SDS011;40499;47.830;19.026;2022-09-13T17:01:57;1.10;;;0.73;;
52984;SDS011;40499;47.830;19.026;2022-09-13T17:04:23;2.05;;;0.98;;
52984;SDS011;40499;47.830;19.026;2022-09-13T17:06:49;5.57;;;2.13;;
52984;SDS011;40499;47.830;19.026;2022-09-13T17:09:15;2.33;;;1.00;;
52984;SDS011;40499;47.830;19.026;2022-09-13T17:11:41;2.17;;;1.00;;
52984;SDS011;40499;47.830;19.026;2022-09-13T17:14:09;1.20;;;0.60;;
52984;SDS011;40499;47.830;19.026;2022-09-13T17:16:40;1.73;;;0.88;;
52984;SDS011;40499;47.830;19.026;2022-09-13T17:19:11;2.50;;;0.63;;
52984;SDS011;40499;47.830;19.026;2022-09-13T17:21:39;1.30;;;0.70;;
52984;SDS011;40499;47.830;19.026;2022-09-13T17:24:04;1.52;;;0.70;;
52984;SDS011;40499;47.830;19.026;2022-09-13T17:26:30;1.77;;;0.77;;
52984;SDS011;40499;47.830;19.026;2022-09-13T17:28:55;1.73;;;0.93;;
52984;SDS011;40499;47.830;19.026;2022-09-13T17:31:21;1.38;;;0.70;;
52984;SDS011;40499;47.830;19.026;2022-09-13T17:33:46;1.05;;;0.50;;
52984;SDS011;40499;47.830;19.026;2022-09-13T17:36:13;1.13;;;0.50;;
52984;SDS011;40499;47.830;19.026;2022-09-13T17:38:39;2.28;;;0.60;;
52984;SDS011;40499;47.830;19.026;2022-09-13T17:41:07;4.00;;;0.70;;
52984;SDS011;40499;47.830;19.026;2022-09-13T17:43:34;2.72;;;1.27;;
52984;SDS011;40499;47.830;19.026;2022-09-13T17:46:04;1.80;;;0.90;;
52984;SDS011;40499;47.830;19.026;2022-09-13T17:48:30;1.23;;;0.70;;
52984;SDS011;40499;47.830;19.026;2022-09-13T17:51:03;1.35;;;0.60;;
52984;SDS011;40499;47.830;19.026;2022-09-13T17:53:30;1.30;;;0.70;;
52984;SDS011;40499;47.830;19.026;2022-09-13T17:55:56;1.10;;;0.70;;
52984;SDS011;40499;47.830;19.026;2022-09-13T17:58:25;1.10;;;0.80;;
52984;SDS011;40499;47.830;19.026;2022-09-13T18:00:58;1.25;;;0.70;;
52984;SDS011;40499;47.830;19.026;2022-09-13T18:03:30;1.35;;;0.73;;
52984;SDS011;40499;47.830;19.026;2022-09-13T18:05:56;1.40;;;0.60;;
52984;SDS011;40499;47.830;19.026;2022-09-13T18:08:24;1.35;;;0.85;;
52984;SDS011;40499;47.830;19.026;2022-09-13T18:10:50;1.73;;;0.80;;
52984;SDS011;40499;47.830;19.026;2022-09-13T18:13:16;1.88;;;0.63;;
52984;SDS011;40499;47.830;19.026;2022-09-13T18:15:41;2.78;;;0.80;;
52984;SDS011;40499;47.830;19.026;2022-09-13T18:18:07;4.45;;;1.55;;
52984;SDS011;40499;47.830;19.026;2022-09-13T18:20:33;4.43;;;2.00;;
52984;SDS011;40499;47.830;19.026;2022-09-13T18:22:58;6.43;;;1.58;;
52984;SDS011;40499;47.830;19.026;2022-09-13T18:25:23;2.50;;;1.38;;
52984;SDS011;40499;47.830;19.026;2022-09-13T18:27:50;1.60;;;0.80;;
52984;SDS011;40499;47.830;19.026;2022-09-13T18:30:15;2.08;;;1.15;;
52984;SDS011;40499;47.830;19.026;2022-09-13T18:32:41;1.65;;;0.90;;
52984;SDS011;40499;47.830;19.026;2022-09-13T18:35:06;1.17;;;0.90;;
52984;SDS011;40499;47.830;19.026;2022-09-13T18:37:32;4.65;;;1.00;;
52984;SDS011;40499;47.830;19.026;2022-09-13T18:39:58;1.77;;;0.80;;
52984;SDS011;40499;47.830;19.026;2022-09-13T18:42:24;1.63;;;0.82;;
52984;SDS011;40499;47.830;19.026;2022-09-13T18:44:49;1.25;;;0.63;;
52984;SDS011;40499;47.830;19.026;2022-09-13T18:47:16;7.38;;;1.45;;
52984;SDS011;40499;47.830;19.026;2022-09-13T18:49:42;3.05;;;0.82;;
52984;SDS011;40499;47.830;19.026;2022-09-13T18:52:07;1.50;;;0.75;;
52984;SDS011;40499;47.830;19.026;2022-09-13T18:54:33;1.08;;;0.75;;
52984;SDS011;40499;47.830;19.026;2022-09-13T18:56:58;1.05;;;0.55;;
52984;SDS011;40499;47.830;19.026;2022-09-13T18:59:24;1.00;;;0.63;;
52984;SDS011;40499;47.830;19.026;2022-09-13T19:01:50;2.10;;;1.05;;
52984;SDS011;40499;47.830;19.026;2022-09-13T19:04:16;2.50;;;1.15;;
52984;SDS011;40499;47.830;19.026;2022-09-13T19:06:44;1.48;;;0.80;;